sensor_id;sensor_type;location;lat;lon;timestamp;temperature;humidity
50586;DHT22;36542;51.700;8.846;2023-03-01T00:00:11;-2.20;99.90
50586;DHT22;36542;51.700;8.846;2023-03-01T00:02:37;-2.20;99.90
50586;DHT22;36542;51.700;8.846;2023-03-01T00:05:03;-2.30;99.90
50586;DHT22;36542;51.700;8.846;2023-03-01T00:07:28;-2.40;99.90
50586;DHT22;36542;51.700;8.846;2023-03-01T00:09:54;-2.50;99.90
50586;DHT22;36542;51.700;8.846;2023-03-01T00:12:20;-2.60;99.90
50586;DHT22;36542;51.700;8.846;2023-03-01T00:14:45;-2.60;99.90
50586;DHT22;36542;51.700;8.846;2023-03-01T00:17:10;-2.70;99.90
50586;DHT22;36542;51.700;8.846;2023-03-01T00:19:36;-2.70;99.90
50586;DHT22;36542;51.700;8.846;2023-03-01T00:22:02;-2.70;99.90
50586;DHT22;36542;51.700;8.846;2023-03-01T00:24:28;-2.80;99.90
50586;DHT22;36542;51.700;8.846;2023-03-01T00:26:54;-2.80;99.90
50586;DHT22;36542;51.700;8.846;2023-03-01T00:29:24;-2.80;99.90
50586;DHT22;36542;51.700;8.846;2023-03-01T00:31:49;-2.50;99.90
50586;DHT22;36542;51.700;8.846;2023-03-01T00:34:15;-2.20;99.90
50586;DHT22;36542;51.700;8.846;2023-03-01T00:36:41;-2.00;99.90
50586;DHT22;36542;51.700;8.846;2023-03-01T00:39:11;-1.80;99.90
50586;DHT22;36542;51.700;8.846;2023-03-01T00:41:36;-1.80;99.90
50586;DHT22;36542;51.700;8.846;2023-03-01T00:44:02;-1.80;99.90
50586;DHT22;36542;51.700;8.846;2023-03-01T00:46:28;-2.00;99.90
50586;DHT22;36542;51.700;8.846;2023-03-01T00:48:55;-2.30;99.90
50586;DHT22;36542;51.700;8.846;2023-03-01T00:51:24;-2.50;99.90
50586;DHT22;36542;51.700;8.846;2023-03-01T00:53:54;-2.60;99.90
50586;DHT22;36542;51.700;8.846;2023-03-01T00:56:20;-2.80;99.90
50586;DHT22;36542;51.700;8.846;2023-03-01T00:58:46;-2.80;99.90
50586;DHT22;36542;51.700;8.846;2023-03-01T01:01:15;-2.90;99.90
50586;DHT22;36542;51.700;8.846;2023-03-01T01:06:19;-2.90;99.90
50586;DHT22;36542;51.700;8.846;2023-03-01T01:08:45;-2.90;99.90
50586;DHT22;36542;51.700;8.846;2023-03-01T01:11:11;-3.00;99.90
50586;DHT22;36542;51.700;8.846;2023-03-01T01:13:38;-3.00;99.90
50586;DHT22;36542;51.700;8.846;2023-03-01T01:16:04;-3.10;99.90
50586;DHT22;36542;51.700;8.846;2023-03-01T01:18:30;-3.20;99.90
50586;DHT22;36542;51.700;8.846;2023-03-01T01:20:55;-3.20;99.90
50586;DHT22;36542;51.700;8.846;2023-03-01T01:23:21;-3.20;99.90
50586;DHT22;36542;51.700;8.846;2023-03-01T01:25:46;-3.10;99.90
50586;DHT22;36542;51.700;8.846;2023-03-01T01:28:12;-3.10;99.90
50586;DHT22;36542;51.700;8.846;2023-03-01T01:30:37;-3.10;99.90
50586;DHT22;36542;51.700;8.846;2023-03-01T01:33:03;-3.10;99.90
50586;DHT22;36542;51.700;8.846;2023-03-01T01:35:28;-3.20;99.90
50586;DHT22;36542;51.700;8.846;2023-03-01T01:37:53;-3.20;99.90
50586;DHT22;36542;51.700;8.846;2023-03-01T01:40:19;-3.30;99.90
50586;DHT22;36542;51.700;8.846;2023-03-01T01:42:45;-3.30;99.90
50586;DHT22;36542;51.700;8.846;2023-03-01T01:45:31;-3.40;99.90
50586;DHT22;36542;51.700;8.846;2023-03-01T01:48:03;-3.40;99.90
50586;DHT22;36542;51.700;8.846;2023-03-01T01:50:30;-3.50;99.90
50586;DHT22;36542;51.700;8.846;2023-03-01T01:53:06;-3.50;99.90
50586;DHT22;36542;51.700;8.846;2023-03-01T01:55:32;-3.40;99.90
50586;DHT22;36542;51.700;8.846;2023-03-01T01:58:02;-3.20;99.90
50586;DHT22;36542;51.700;8.846;2023-03-01T02:00:29;-3.00;99.90
50586;DHT22;36542;51.700;8.846;2023-03-01T02:02:59;-2.90;99.90
50586;DHT22;36542;51.700;8.846;2023-03-01T02:07:58;-3.10;99.90
50586;DHT22;36542;51.700;8.846;2023-03-01T02:10:24;-3.20;99.90
50586;DHT22;36542;51.700;8.846;2023-03-01T02:12:51;-3.30;99.90
50586;DHT22;36542;51.700;8.846;2023-03-01T02:15:17;-3.40;99.90
50586;DHT22;36542;51.700;8.846;2023-03-01T02:17:42;-3.40;99.90
50586;DHT22;36542;51.700;8.846;2023-03-01T02:20:40;-3.40;99.90
50586;DHT22;36542;51.700;8.846;2023-03-01T02:23:10;-3.30;99.90
50586;DHT22;36542;51.700;8.846;2023-03-01T02:25:40;-3.30;99.90
50586;DHT22;36542;51.700;8.846;2023-03-01T02:30:46;-3.30;99.90
50586;DHT22;36542;51.700;8.846;2023-03-01T02:33:34;-3.30;99.90
50586;DHT22;36542;51.700;8.846;2023-03-01T02:36:04;-3.20;99.90
50586;DHT22;36542;51.700;8.846;2023-03-01T02:38:32;-3.30;99.90
50586;DHT22;36542;51.700;8.846;2023-03-01T02:40:58;-3.20;99.90
50586;DHT22;36542;51.700;8.846;2023-03-01T02:43:27;-3.30;99.90
50586;DHT22;36542;51.700;8.846;2023-03-01T02:45:57;-3.30;99.90
50586;DHT22;36542;51.700;8.846;2023-03-01T02:48:23;-3.30;99.90
50586;DHT22;36542;51.700;8.846;2023-03-01T02:56:26;-3.30;99.90
50586;DHT22;36542;51.700;8.846;2023-03-01T02:58:52;-3.30;99.90
50586;DHT22;36542;51.700;8.846;2023-03-01T03:01:19;-3.30;99.90
50586;DHT22;36542;51.700;8.846;2023-03-01T03:03:45;-3.40;99.90
50586;DHT22;36542;51.700;8.846;2023-03-01T03:06:11;-3.40;99.90
50586;DHT22;36542;51.700;8.846;2023-03-01T03:08:36;-3.50;99.90
50586;DHT22;36542;51.700;8.846;2023-03-01T03:11:02;-3.60;99.90
50586;DHT22;36542;51.700;8.846;2023-03-01T03:13:27;-3.60;99.90
50586;DHT22;36542;51.700;8.846;2023-03-01T03:15:57;-3.70;99.90
50586;DHT22;36542;51.700;8.846;2023-03-01T03:18:23;-3.80;99.90
50586;DHT22;36542;51.700;8.846;2023-03-01T03:20:51;-3.80;99.90
50586;DHT22;36542;51.700;8.846;2023-03-01T03:23:18;-3.90;99.90
50586;DHT22;36542;51.700;8.846;2023-03-01T03:25:44;-3.80;99.90
50586;DHT22;36542;51.700;8.846;2023-03-01T03:28:09;-3.90;99.90
50586;DHT22;36542;51.700;8.846;2023-03-01T03:30:37;-3.90;99.90
50586;DHT22;36542;51.700;8.846;2023-03-01T03:33:05;-3.90;99.90
50586;DHT22;36542;51.700;8.846;2023-03-01T03:35:43;-3.90;99.90
50586;DHT22;36542;51.700;8.846;2023-03-01T03:38:10;-3.90;99.90
50586;DHT22;36542;51.700;8.846;2023-03-01T03:40:46;-3.80;99.90
50586;DHT22;36542;51.700;8.846;2023-03-01T03:43:14;-3.60;99.90
50586;DHT22;36542;51.700;8.846;2023-03-01T03:45:40;-3.60;99.90
50586;DHT22;36542;51.700;8.846;2023-03-01T03:48:08;-3.60;99.90
50586;DHT22;36542;51.700;8.846;2023-03-01T03:50:34;-3.60;99.90
50586;DHT22;36542;51.700;8.846;2023-03-01T03:53:01;-3.60;99.90
50586;DHT22;36542;51.700;8.846;2023-03-01T03:55:27;-3.80;99.90
50586;DHT22;36542;51.700;8.846;2023-03-01T03:57:57;-3.90;99.90
50586;DHT22;36542;51.700;8.846;2023-03-01T04:00:25;-4.00;99.90
50586;DHT22;36542;51.700;8.846;2023-03-01T04:02:51;-4.00;99.90
50586;DHT22;36542;51.700;8.846;2023-03-01T04:05:18;-3.90;99.90
50586;DHT22;36542;51.700;8.846;2023-03-01T04:07:45;-4.00;99.90
50586;DHT22;36542;51.700;8.846;2023-03-01T04:10:15;-4.00;99.90
50586;DHT22;36542;51.700;8.846;2023-03-01T04:12:41;-4.00;99.90
50586;DHT22;36542;51.700;8.846;2023-03-01T04:15:10;-4.10;99.90
50586;DHT22;36542;51.700;8.846;2023-03-01T04:17:45;-4.10;99.90
50586;DHT22;36542;51.700;8.846;2023-03-01T04:20:16;-4.10;99.90
50586;DHT22;36542;51.700;8.846;2023-03-01T04:22:51;-4.10;99.90
50586;DHT22;36542;51.700;8.846;2023-03-01T04:25:16;-4.20;99.90
50586;DHT22;36542;51.700;8.846;2023-03-01T04:27:42;-4.20;99.90
50586;DHT22;36542;51.700;8.846;2023-03-01T04:30:08;-4.20;99.90
50586;DHT22;36542;51.700;8.846;2023-03-01T04:32:34;-4.20;99.90
50586;DHT22;36542;51.700;8.846;2023-03-01T04:35:00;-4.20;99.90
50586;DHT22;36542;51.700;8.846;2023-03-01T04:37:26;-4.20;99.90
50586;DHT22;36542;51.700;8.846;2023-03-01T04:39:51;-4.20;99.90
50586;DHT22;36542;51.700;8.846;2023-03-01T04:42:17;-4.20;99.90
50586;DHT22;36542;51.700;8.846;2023-03-01T04:44:44;-4.20;99.90
50586;DHT22;36542;51.700;8.846;2023-03-01T04:47:09;-4.30;99.90
50586;DHT22;36542;51.700;8.846;2023-03-01T04:49:35;-4.30;99.90
50586;DHT22;36542;51.700;8.846;2023-03-01T04:52:01;-4.30;99.90
50586;DHT22;36542;51.700;8.846;2023-03-01T04:54:31;-4.30;99.90
50586;DHT22;36542;51.700;8.846;2023-03-01T04:56:57;-4.30;99.90
50586;DHT22;36542;51.700;8.846;2023-03-01T04:59:23;-4.30;99.90
50586;DHT22;36542;51.700;8.846;2023-03-01T05:01:49;-4.20;99.90
50586;DHT22;36542;51.700;8.846;2023-03-01T05:04:15;-4.30;99.90
50586;DHT22;36542;51.700;8.846;2023-03-01T05:06:40;-4.20;99.90
50586;DHT22;36542;51.700;8.846;2023-03-01T05:09:06;-4.20;99.90
50586;DHT22;36542;51.700;8.846;2023-03-01T05:11:32;-4.20;99.90
50586;DHT22;36542;51.700;8.846;2023-03-01T05:14:02;-4.20;99.90
50586;DHT22;36542;51.700;8.846;2023-03-01T05:16:27;-4.20;99.90
50586;DHT22;36542;51.700;8.846;2023-03-01T05:18:53;-4.20;99.90
50586;DHT22;36542;51.700;8.846;2023-03-01T05:21:20;-4.10;99.90
50586;DHT22;36542;51.700;8.846;2023-03-01T05:23:46;-4.10;99.90
50586;DHT22;36542;51.700;8.846;2023-03-01T05:26:12;-4.10;99.90
50586;DHT22;36542;51.700;8.846;2023-03-01T05:28:38;-4.10;99.90
50586;DHT22;36542;51.700;8.846;2023-03-01T05:31:05;-4.10;99.90
50586;DHT22;36542;51.700;8.846;2023-03-01T05:33:38;-4.10;99.90
50586;DHT22;36542;51.700;8.846;2023-03-01T05:36:05;-4.20;99.90
50586;DHT22;36542;51.700;8.846;2023-03-01T05:38:31;-4.30;99.90
50586;DHT22;36542;51.700;8.846;2023-03-01T05:40:57;-4.40;99.90
50586;DHT22;36542;51.700;8.846;2023-03-01T05:43:22;-4.50;99.90
50586;DHT22;36542;51.700;8.846;2023-03-01T05:45:48;-4.50;99.90
50586;DHT22;36542;51.700;8.846;2023-03-01T05:48:13;-4.50;99.90
50586;DHT22;36542;51.700;8.846;2023-03-01T05:50:43;-4.50;99.90
50586;DHT22;36542;51.700;8.846;2023-03-01T05:53:11;-4.60;99.90
50586;DHT22;36542;51.700;8.846;2023-03-01T05:55:37;-4.60;99.90
50586;DHT22;36542;51.700;8.846;2023-03-01T05:58:05;-4.60;99.90
50586;DHT22;36542;51.700;8.846;2023-03-01T06:00:31;-4.80;99.90
50586;DHT22;36542;51.700;8.846;2023-03-01T06:02:58;-4.70;99.90
50586;DHT22;36542;51.700;8.846;2023-03-01T06:05:24;-4.70;99.90
50586;DHT22;36542;51.700;8.846;2023-03-01T06:07:50;-4.70;99.90
50586;DHT22;36542;51.700;8.846;2023-03-01T06:10:16;-4.70;99.90
50586;DHT22;36542;51.700;8.846;2023-03-01T06:12:42;-4.60;99.90
50586;DHT22;36542;51.700;8.846;2023-03-01T06:15:10;-4.50;99.90
50586;DHT22;36542;51.700;8.846;2023-03-01T06:17:37;-4.40;99.90
50586;DHT22;36542;51.700;8.846;2023-03-01T06:20:15;-4.30;99.90
50586;DHT22;36542;51.700;8.846;2023-03-01T06:22:41;-4.40;99.90
50586;DHT22;36542;51.700;8.846;2023-03-01T06:25:08;-4.30;99.90
50586;DHT22;36542;51.700;8.846;2023-03-01T06:27:34;-4.20;99.90
50586;DHT22;36542;51.700;8.846;2023-03-01T06:30:00;-4.10;99.90
50586;DHT22;36542;51.700;8.846;2023-03-01T06:32:25;-4.00;99.90
50586;DHT22;36542;51.700;8.846;2023-03-01T06:34:51;-4.00;99.90
50586;DHT22;36542;51.700;8.846;2023-03-01T06:37:17;-4.00;99.90
50586;DHT22;36542;51.700;8.846;2023-03-01T06:39:42;-4.00;99.90
50586;DHT22;36542;51.700;8.846;2023-03-01T06:42:08;-4.00;99.90
50586;DHT22;36542;51.700;8.846;2023-03-01T06:44:35;-3.90;99.90
50586;DHT22;36542;51.700;8.846;2023-03-01T06:47:01;-3.90;99.90
50586;DHT22;36542;51.700;8.846;2023-03-01T06:49:27;-3.70;99.90
50586;DHT22;36542;51.700;8.846;2023-03-01T06:51:52;-3.70;99.90
50586;DHT22;36542;51.700;8.846;2023-03-01T06:54:18;-3.60;99.90
50586;DHT22;36542;51.700;8.846;2023-03-01T06:56:46;-3.40;99.90
50586;DHT22;36542;51.700;8.846;2023-03-01T06:59:12;-3.20;99.90
50586;DHT22;36542;51.700;8.846;2023-03-01T07:01:38;-2.80;99.90
50586;DHT22;36542;51.700;8.846;2023-03-01T07:04:04;-2.10;99.90
50586;DHT22;36542;51.700;8.846;2023-03-01T07:06:30;-1.20;99.90
50586;DHT22;36542;51.700;8.846;2023-03-01T07:08:55;0.50;99.90
50586;DHT22;36542;51.700;8.846;2023-03-01T07:11:21;2.10;99.90
50586;DHT22;36542;51.700;8.846;2023-03-01T07:13:46;3.50;99.90
50586;DHT22;36542;51.700;8.846;2023-03-01T07:16:12;4.70;99.90
50586;DHT22;36542;51.700;8.846;2023-03-01T07:18:37;5.70;99.90
50586;DHT22;36542;51.700;8.846;2023-03-01T07:21:07;6.50;99.90
50586;DHT22;36542;51.700;8.846;2023-03-01T07:23:32;6.60;99.90
50586;DHT22;36542;51.700;8.846;2023-03-01T07:25:58;6.70;99.90
50586;DHT22;36542;51.700;8.846;2023-03-01T07:28:24;7.00;99.90
50586;DHT22;36542;51.700;8.846;2023-03-01T07:30:49;6.10;99.90
50586;DHT22;36542;51.700;8.846;2023-03-01T07:33:16;6.40;99.90
50586;DHT22;36542;51.700;8.846;2023-03-01T07:35:41;6.80;99.90
50586;DHT22;36542;51.700;8.846;2023-03-01T07:38:07;7.70;99.90
50586;DHT22;36542;51.700;8.846;2023-03-01T07:40:32;8.30;98.10
50586;DHT22;36542;51.700;8.846;2023-03-01T07:42:58;8.80;97.10
50586;DHT22;36542;51.700;8.846;2023-03-01T07:45:29;9.40;96.10
50586;DHT22;36542;51.700;8.846;2023-03-01T07:47:55;9.60;95.10
50586;DHT22;36542;51.700;8.846;2023-03-01T07:50:22;9.30;94.70
50586;DHT22;36542;51.700;8.846;2023-03-01T07:52:49;9.20;94.80
50586;DHT22;36542;51.700;8.846;2023-03-01T07:55:15;9.10;94.90
50586;DHT22;36542;51.700;8.846;2023-03-01T07:57:41;9.30;94.60
50586;DHT22;36542;51.700;8.846;2023-03-01T08:00:10;9.10;94.70
50586;DHT22;36542;51.700;8.846;2023-03-01T08:02:38;9.20;94.50
50586;DHT22;36542;51.700;8.846;2023-03-01T08:05:04;9.00;94.50
50586;DHT22;36542;51.700;8.846;2023-03-01T08:07:29;8.60;94.70
50586;DHT22;36542;51.700;8.846;2023-03-01T08:09:55;9.40;94.40
50586;DHT22;36542;51.700;8.846;2023-03-01T08:12:20;9.40;93.90
50586;DHT22;36542;51.700;8.846;2023-03-01T08:14:46;9.60;93.20
50586;DHT22;36542;51.700;8.846;2023-03-01T08:17:14;9.40;93.30
50586;DHT22;36542;51.700;8.846;2023-03-01T08:19:39;9.40;93.30
50586;DHT22;36542;51.700;8.846;2023-03-01T08:22:05;9.40;92.70
50586;DHT22;36542;51.700;8.846;2023-03-01T08:24:30;9.60;92.90
50586;DHT22;36542;51.700;8.846;2023-03-01T08:26:56;9.70;92.40
50586;DHT22;36542;51.700;8.846;2023-03-01T08:29:22;9.40;92.20
50586;DHT22;36542;51.700;8.846;2023-03-01T08:31:49;9.00;92.90
50586;DHT22;36542;51.700;8.846;2023-03-01T08:34:16;8.60;93.20
50586;DHT22;36542;51.700;8.846;2023-03-01T08:36:44;9.20;92.70
50586;DHT22;36542;51.700;8.846;2023-03-01T08:39:13;9.60;91.90
50586;DHT22;36542;51.700;8.846;2023-03-01T08:41:39;9.30;91.70
50586;DHT22;36542;51.700;8.846;2023-03-01T08:44:06;9.50;92.00
50586;DHT22;36542;51.700;8.846;2023-03-01T08:46:34;10.40;91.20
50586;DHT22;36542;51.700;8.846;2023-03-01T08:49:04;11.00;89.90
50586;DHT22;36542;51.700;8.846;2023-03-01T08:51:29;10.80;90.00
50586;DHT22;36542;51.700;8.846;2023-03-01T08:53:57;10.50;89.20
50586;DHT22;36542;51.700;8.846;2023-03-01T08:56:22;10.10;89.90
50586;DHT22;36542;51.700;8.846;2023-03-01T08:58:48;9.60;90.60
50586;DHT22;36542;51.700;8.846;2023-03-01T09:01:19;9.40;90.40
50586;DHT22;36542;51.700;8.846;2023-03-01T09:03:44;9.60;90.30
50586;DHT22;36542;51.700;8.846;2023-03-01T09:06:11;10.00;90.00
50586;DHT22;36542;51.700;8.846;2023-03-01T09:08:38;9.70;89.10
50586;DHT22;36542;51.700;8.846;2023-03-01T09:11:06;9.70;90.00
50586;DHT22;36542;51.700;8.846;2023-03-01T09:13:31;10.50;88.40
50586;DHT22;36542;51.700;8.846;2023-03-01T09:15:58;11.10;86.80
50586;DHT22;36542;51.700;8.846;2023-03-01T09:18:25;10.20;86.50
50586;DHT22;36542;51.700;8.846;2023-03-01T09:20:51;10.30;86.70
50586;DHT22;36542;51.700;8.846;2023-03-01T09:23:16;10.00;88.00
50586;DHT22;36542;51.700;8.846;2023-03-01T09:25:41;10.50;87.30
50586;DHT22;36542;51.700;8.846;2023-03-01T09:28:07;10.40;86.40
50586;DHT22;36542;51.700;8.846;2023-03-01T09:30:32;10.30;86.20
50586;DHT22;36542;51.700;8.846;2023-03-01T09:32:58;9.90;87.70
50586;DHT22;36542;51.700;8.846;2023-03-01T09:35:24;9.70;90.10
50586;DHT22;36542;51.700;8.846;2023-03-01T09:37:50;10.60;85.70
50586;DHT22;36542;51.700;8.846;2023-03-01T09:40:20;10.30;86.50
50586;DHT22;36542;51.700;8.846;2023-03-01T09:42:52;9.80;87.80
50586;DHT22;36542;51.700;8.846;2023-03-01T09:45:35;9.80;89.00
50586;DHT22;36542;51.700;8.846;2023-03-01T09:48:05;10.50;87.10
50586;DHT22;36542;51.700;8.846;2023-03-01T09:50:40;11.20;84.70
50586;DHT22;36542;51.700;8.846;2023-03-01T09:53:10;10.80;84.80
50586;DHT22;36542;51.700;8.846;2023-03-01T09:55:46;10.80;85.10
50586;DHT22;36542;51.700;8.846;2023-03-01T09:58:30;10.80;85.40
50586;DHT22;36542;51.700;8.846;2023-03-01T10:01:02;10.50;85.80
50586;DHT22;36542;51.700;8.846;2023-03-01T10:03:36;10.50;85.10
50586;DHT22;36542;51.700;8.846;2023-03-01T10:06:22;9.90;87.00
50586;DHT22;36542;51.700;8.846;2023-03-01T10:09:07;10.40;86.70
50586;DHT22;36542;51.700;8.846;2023-03-01T10:11:38;10.70;84.80
50586;DHT22;36542;51.700;8.846;2023-03-01T10:19:46;10.50;85.00
50586;DHT22;36542;51.700;8.846;2023-03-01T10:22:24;9.90;85.50
50586;DHT22;36542;51.700;8.846;2023-03-01T10:24:54;10.10;86.00
50586;DHT22;36542;51.700;8.846;2023-03-01T10:27:35;10.30;85.10
50586;DHT22;36542;51.700;8.846;2023-03-01T10:32:39;10.20;85.00
50586;DHT22;36542;51.700;8.846;2023-03-01T10:40:23;11.00;83.20
50586;DHT22;36542;51.700;8.846;2023-03-01T10:42:49;10.60;81.90
50586;DHT22;36542;51.700;8.846;2023-03-01T10:45:34;10.50;83.40
50586;DHT22;36542;51.700;8.846;2023-03-01T10:50:31;10.40;81.40
50586;DHT22;36542;51.700;8.846;2023-03-01T10:53:02;10.00;83.80
50586;DHT22;36542;51.700;8.846;2023-03-01T10:55:37;10.40;83.70
50586;DHT22;36542;51.700;8.846;2023-03-01T10:58:18;10.60;81.20
50586;DHT22;36542;51.700;8.846;2023-03-01T11:00:59;10.50;82.30
50586;DHT22;36542;51.700;8.846;2023-03-01T11:03:37;11.40;83.00
50586;DHT22;36542;51.700;8.846;2023-03-01T11:08:42;11.80;78.10
50586;DHT22;36542;51.700;8.846;2023-03-01T11:13:47;11.20;80.20
50586;DHT22;36542;51.700;8.846;2023-03-01T11:16:14;10.60;80.70
50586;DHT22;36542;51.700;8.846;2023-03-01T11:18:40;10.20;81.30
50586;DHT22;36542;51.700;8.846;2023-03-01T11:21:06;9.80;81.50
50586;DHT22;36542;51.700;8.846;2023-03-01T11:23:34;9.90;84.70
50586;DHT22;36542;51.700;8.846;2023-03-01T11:26:07;9.80;82.50
50586;DHT22;36542;51.700;8.846;2023-03-01T11:28:35;9.60;83.40
50586;DHT22;36542;51.700;8.846;2023-03-01T11:31:08;9.20;83.40
50586;DHT22;36542;51.700;8.846;2023-03-01T11:36:41;9.00;85.60
50586;DHT22;36542;51.700;8.846;2023-03-01T11:39:33;9.10;85.70
50586;DHT22;36542;51.700;8.846;2023-03-01T11:42:17;8.80;86.70
50586;DHT22;36542;51.700;8.846;2023-03-01T11:44:47;9.00;88.10
50586;DHT22;36542;51.700;8.846;2023-03-01T11:52:51;8.30;90.00
50586;DHT22;36542;51.700;8.846;2023-03-01T11:55:42;7.50;89.10
50586;DHT22;36542;51.700;8.846;2023-03-01T12:06:59;5.80;94.40
50586;DHT22;36542;51.700;8.846;2023-03-01T12:09:47;5.60;97.00
50586;DHT22;36542;51.700;8.846;2023-03-01T12:12:34;5.50;95.20
50586;DHT22;36542;51.700;8.846;2023-03-01T12:15:32;5.40;97.00
50586;DHT22;36542;51.700;8.846;2023-03-01T12:25:58;5.30;96.90
50586;DHT22;36542;51.700;8.846;2023-03-01T12:31:29;5.20;97.70
50586;DHT22;36542;51.700;8.846;2023-03-01T12:34:24;5.10;97.40
50586;DHT22;36542;51.700;8.846;2023-03-01T12:42:31;5.30;99.10
50586;DHT22;36542;51.700;8.846;2023-03-01T12:48:05;5.30;98.70
50586;DHT22;36542;51.700;8.846;2023-03-01T12:53:05;5.20;97.30
50586;DHT22;36542;51.700;8.846;2023-03-01T12:55:39;5.20;99.20
50586;DHT22;36542;51.700;8.846;2023-03-01T12:58:31;5.30;97.80
50586;DHT22;36542;51.700;8.846;2023-03-01T13:10:01;5.50;97.90
50586;DHT22;36542;51.700;8.846;2023-03-01T13:28:38;5.60;95.30
50586;DHT22;36542;51.700;8.846;2023-03-01T13:31:07;5.80;94.90
50586;DHT22;36542;51.700;8.846;2023-03-01T13:33:52;5.90;95.40
50586;DHT22;36542;51.700;8.846;2023-03-01T13:38:59;5.70;94.60
50586;DHT22;36542;51.700;8.846;2023-03-01T13:44:24;5.80;95.30
50586;DHT22;36542;51.700;8.846;2023-03-01T13:46:53;5.80;94.90
50586;DHT22;36542;51.700;8.846;2023-03-01T13:49:33;5.90;95.60
50586;DHT22;36542;51.700;8.846;2023-03-01T13:52:01;5.90;94.50
50586;DHT22;36542;51.700;8.846;2023-03-01T13:54:31;5.80;94.00
50586;DHT22;36542;51.700;8.846;2023-03-01T13:57:00;5.90;95.50
50586;DHT22;36542;51.700;8.846;2023-03-01T13:59:26;5.90;94.50
50586;DHT22;36542;51.700;8.846;2023-03-01T14:01:57;5.90;96.30
50586;DHT22;36542;51.700;8.846;2023-03-01T14:04:25;6.00;95.70
50586;DHT22;36542;51.700;8.846;2023-03-01T14:07:08;6.00;96.60
50586;DHT22;36542;51.700;8.846;2023-03-01T14:09:37;5.90;95.10
50586;DHT22;36542;51.700;8.846;2023-03-01T14:12:09;6.00;97.60
50586;DHT22;36542;51.700;8.846;2023-03-01T14:14:44;6.00;96.20
50586;DHT22;36542;51.700;8.846;2023-03-01T14:20:32;6.00;97.20
50586;DHT22;36542;51.700;8.846;2023-03-01T14:23:02;5.90;95.80
50586;DHT22;36542;51.700;8.846;2023-03-01T14:25:35;6.10;96.30
50586;DHT22;36542;51.700;8.846;2023-03-01T14:28:12;6.10;96.20
50586;DHT22;36542;51.700;8.846;2023-03-01T14:30:45;6.00;96.20
50586;DHT22;36542;51.700;8.846;2023-03-01T14:33:31;6.00;96.10
50586;DHT22;36542;51.700;8.846;2023-03-01T14:36:06;6.00;97.40
50586;DHT22;36542;51.700;8.846;2023-03-01T14:41:03;6.10;96.70
50586;DHT22;36542;51.700;8.846;2023-03-01T14:43:29;6.20;98.00
50586;DHT22;36542;51.700;8.846;2023-03-01T14:45:56;6.20;97.70
50586;DHT22;36542;51.700;8.846;2023-03-01T14:48:21;6.00;97.20
50586;DHT22;36542;51.700;8.846;2023-03-01T14:50:47;5.90;97.70
50586;DHT22;36542;51.700;8.846;2023-03-01T14:53:20;5.90;95.70
50586;DHT22;36542;51.700;8.846;2023-03-01T14:55:50;5.90;96.90
50586;DHT22;36542;51.700;8.846;2023-03-01T14:58:20;5.90;98.90
50586;DHT22;36542;51.700;8.846;2023-03-01T15:00:55;5.80;98.30
50586;DHT22;36542;51.700;8.846;2023-03-01T15:03:30;5.70;98.60
50586;DHT22;36542;51.700;8.846;2023-03-01T15:05:57;5.70;99.90
50586;DHT22;36542;51.700;8.846;2023-03-01T15:08:24;5.70;98.40
50586;DHT22;36542;51.700;8.846;2023-03-01T15:11:05;5.60;99.20
50586;DHT22;36542;51.700;8.846;2023-03-01T15:13:42;5.60;99.30
50586;DHT22;36542;51.700;8.846;2023-03-01T15:16:09;5.70;99.60
50586;DHT22;36542;51.700;8.846;2023-03-01T15:18:36;5.60;99.90
50586;DHT22;36542;51.700;8.846;2023-03-01T15:21:23;5.60;99.70
50586;DHT22;36542;51.700;8.846;2023-03-01T15:23:55;5.60;99.90
50586;DHT22;36542;51.700;8.846;2023-03-01T15:26:30;5.50;99.90
50586;DHT22;36542;51.700;8.846;2023-03-01T15:28:58;5.50;99.00
50586;DHT22;36542;51.700;8.846;2023-03-01T15:31:27;5.40;99.20
50586;DHT22;36542;51.700;8.846;2023-03-01T15:33:53;5.50;99.90
50586;DHT22;36542;51.700;8.846;2023-03-01T15:36:35;5.40;99.90
50586;DHT22;36542;51.700;8.846;2023-03-01T15:39:05;5.40;99.30
50586;DHT22;36542;51.700;8.846;2023-03-01T15:41:49;5.40;99.90
50586;DHT22;36542;51.700;8.846;2023-03-01T15:44:16;5.30;99.90
50586;DHT22;36542;51.700;8.846;2023-03-01T15:46:46;5.20;99.90
50586;DHT22;36542;51.700;8.846;2023-03-01T15:49:48;5.20;99.90
50586;DHT22;36542;51.700;8.846;2023-03-01T15:52:22;5.20;99.90
50586;DHT22;36542;51.700;8.846;2023-03-01T15:54:55;5.10;99.90
50586;DHT22;36542;51.700;8.846;2023-03-01T15:57:21;5.10;99.90
50586;DHT22;36542;51.700;8.846;2023-03-01T15:59:46;5.00;99.90
50586;DHT22;36542;51.700;8.846;2023-03-01T16:02:12;5.00;99.90
50586;DHT22;36542;51.700;8.846;2023-03-01T16:04:40;5.00;99.90
50586;DHT22;36542;51.700;8.846;2023-03-01T16:07:06;5.00;99.90
50586;DHT22;36542;51.700;8.846;2023-03-01T16:09:31;4.90;99.90
50586;DHT22;36542;51.700;8.846;2023-03-01T16:11:57;4.90;99.90
50586;DHT22;36542;51.700;8.846;2023-03-01T16:14:22;4.80;99.90
50586;DHT22;36542;51.700;8.846;2023-03-01T16:16:48;4.80;99.90
50586;DHT22;36542;51.700;8.846;2023-03-01T16:19:15;4.80;99.90
50586;DHT22;36542;51.700;8.846;2023-03-01T16:21:40;4.80;99.90
50586;DHT22;36542;51.700;8.846;2023-03-01T16:24:07;4.70;99.90
50586;DHT22;36542;51.700;8.846;2023-03-01T16:26:33;4.60;99.90
50586;DHT22;36542;51.700;8.846;2023-03-01T16:28:58;4.50;99.90
50586;DHT22;36542;51.700;8.846;2023-03-01T16:31:24;4.50;99.90
50586;DHT22;36542;51.700;8.846;2023-03-01T16:33:54;4.30;99.90
50586;DHT22;36542;51.700;8.846;2023-03-01T16:36:20;4.30;99.90
50586;DHT22;36542;51.700;8.846;2023-03-01T16:38:48;4.20;99.90
50586;DHT22;36542;51.700;8.846;2023-03-01T16:41:16;4.20;99.90
50586;DHT22;36542;51.700;8.846;2023-03-01T16:43:42;4.20;99.90
50586;DHT22;36542;51.700;8.846;2023-03-01T16:46:19;4.10;99.90
50586;DHT22;36542;51.700;8.846;2023-03-01T16:48:46;4.00;99.90
50586;DHT22;36542;51.700;8.846;2023-03-01T16:51:12;4.00;99.90
50586;DHT22;36542;51.700;8.846;2023-03-01T16:53:38;4.00;99.90
50586;DHT22;36542;51.700;8.846;2023-03-01T16:56:06;3.90;99.90
50586;DHT22;36542;51.700;8.846;2023-03-01T16:58:33;3.90;99.90
50586;DHT22;36542;51.700;8.846;2023-03-01T17:01:05;3.80;99.90
50586;DHT22;36542;51.700;8.846;2023-03-01T17:03:31;3.70;99.90
50586;DHT22;36542;51.700;8.846;2023-03-01T17:05:56;3.70;99.90
50586;DHT22;36542;51.700;8.846;2023-03-01T17:08:22;3.70;99.90
50586;DHT22;36542;51.700;8.846;2023-03-01T17:10:47;3.60;99.90
50586;DHT22;36542;51.700;8.846;2023-03-01T17:13:13;3.60;99.90
50586;DHT22;36542;51.700;8.846;2023-03-01T17:15:42;3.50;99.90
50586;DHT22;36542;51.700;8.846;2023-03-01T17:18:09;3.50;99.90
50586;DHT22;36542;51.700;8.846;2023-03-01T17:20:35;3.50;99.90
50586;DHT22;36542;51.700;8.846;2023-03-01T17:23:01;3.40;99.90
50586;DHT22;36542;51.700;8.846;2023-03-01T17:25:27;3.30;99.90
50586;DHT22;36542;51.700;8.846;2023-03-01T17:27:52;3.30;99.90
50586;DHT22;36542;51.700;8.846;2023-03-01T17:30:18;3.30;99.90
50586;DHT22;36542;51.700;8.846;2023-03-01T17:32:43;3.30;99.90
50586;DHT22;36542;51.700;8.846;2023-03-01T17:35:09;3.20;99.90
50586;DHT22;36542;51.700;8.846;2023-03-01T17:37:39;3.20;99.90